Time;durP1;ratioP1;P1;durP2;ratioP2;P2;SDS_P1;SDS_P2;PMS_P1;PMS_P2;Temp;Humidity;BMP_temperature;BMP_pressure;BME280_temperature;BME280_humidity;BME280_pressure;Samples;Min_cycle;Max_cycle;Signal;HPM_P1;HPM_P2
2024/04/12 00:01:16;;;;;;;17.33;11.20;;;17.50;68.60;;;;;;5225855;26;111563;-51
2024/04/12 00:03:43;;;;;;;13.52;10.63;;;17.40;69.00;;;;;;5227153;26;110845;-50
2024/04/12 00:06:16;;;;;;;15.82;11.23;;;17.40;68.90;;;;;;5226966;26;110678;-51
2024/04/12 00:08:46;;;;;;;16.85;10.25;;;17.40;68.50;;;;;;5227446;26;110550;-51
2024/04/12 00:11:19;;;;;;;13.55;10.60;;;17.50;68.20;;;;;;5225611;26;111137;-51
2024/04/12 00:13:48;;;;;;;14.57;10.25;;;17.40;68.40;;;;;;5226598;26;111174;-51
2024/04/12 00:16:17;;;;;;;17.30;11.13;;;17.40;68.60;;;;;;5226690;26;110910;-50
2024/04/12 00:18:45;;;;;;;15.93;10.88;;;17.40;68.50;;;;;;5227274;26;110615;-51
2024/04/12 00:21:11;;;;;;;15.80;10.55;;;17.40;68.10;;;;;;5225797;26;111290;-51
2024/04/12 00:23:40;;;;;;;14.23;9.85;;;17.40;67.80;;;;;;5226064;26;111553;-50
2024/04/12 00:26:06;;;;;;;14.15;9.98;;;17.40;67.50;;;;;;5228052;26;110789;-51
2024/04/12 00:28:34;;;;;;;16.20;11.02;;;17.40;67.60;;;;;;5225781;26;110933;-51
2024/04/12 00:31:02;;;;;;;17.95;10.75;;;17.40;68.20;;;;;;5225787;26;111037;-50
2024/04/12 00:33:32;;;;;;;11.48;9.90;;;17.40;67.90;;;;;;5225345;26;111292;-51
2024/04/12 00:36:12;;;;;;;17.00;9.10;;;17.30;68.10;;;;;;5227726;26;110463;-51
2024/04/12 00:38:41;;;;;;;14.77;9.50;;;17.30;67.60;;;;;;5227862;26;110877;-51
2024/04/12 00:41:12;;;;;;;10.52;9.07;;;17.30;67.40;;;;;;5226387;26;111070;-51
2024/04/12 00:43:45;;;;;;;14.10;9.60;;;17.40;66.90;;;;;;5226265;26;111210;-51
2024/04/12 00:46:18;;;;;;;15.00;8.65;;;17.30;66.90;;;;;;5223498;26;110474;-51
2024/04/12 00:48:45;;;;;;;13.15;8.30;;;17.20;67.10;;;;;;5226346;26;110587;-50
2024/04/12 00:51:16;;;;;;;11.52;8.25;;;17.20;67.10;;;;;;5226678;26;112358;-51
2024/04/12 00:53:46;;;;;;;15.27;8.82;;;17.20;67.30;;;;;;5226946;26;110838;-52
2024/04/12 00:56:13;;;;;;;11.07;8.25;;;17.40;66.90;;;;;;5227366;26;111090;-50
2024/04/12 00:58:41;;;;;;;12.27;8.68;;;17.20;66.80;;;;;;5228143;26;110623;-51
2024/04/12 01:01:17;;;;;;;18.50;8.25;;;17.10;67.10;;;;;;5226451;26;112532;-51
2024/04/12 01:03:47;;;;;;;11.52;8.63;;;17.10;67.60;;;;;;5219071;26;111529;-51
2024/04/12 01:06:16;;;;;;;11.32;7.82;;;17.10;67.40;;;;;;5227867;26;110643;-51
2024/04/12 01:08:44;;;;;;;11.25;8.07;;;17.10;67.50;;;;;;5227974;26;110735;-50
2024/04/12 01:11:11;;;;;;;11.98;8.13;;;17.10;67.40;;;;;;5226756;26;112478;-51
2024/04/12 01:13:37;;;;;;;10.63;7.70;;;17.10;67.10;;;;;;5226787;26;110852;-51
2024/04/12 01:16:05;;;;;;;11.32;7.72;;;17.00;67.40;;;;;;5227431;26;112140;-51
2024/04/12 01:18:32;;;;;;;12.68;7.93;;;17.00;67.60;;;;;;5226928;26;111100;-51
2024/04/12 01:21:00;;;;;;;11.00;7.75;;;16.90;67.60;;;;;;5226232;26;112735;-50
2024/04/12 01:23:27;;;;;;;10.10;7.22;;;16.90;67.70;;;;;;5226545;26;111948;-51
2024/04/12 01:25:56;;;;;;;11.00;7.38;;;16.90;67.80;;;;;;5227072;26;110599;-51
2024/04/12 01:28:22;;;;;;;10.57;7.03;;;16.90;67.30;;;;;;5226940;26;111609;-51
2024/04/12 01:30:48;;;;;;;14.23;7.30;;;16.90;67.10;;;;;;5226083;26;112384;-50
2024/04/12 01:33:13;;;;;;;12.27;7.55;;;16.90;67.00;;;;;;5226655;26;111529;-50
2024/04/12 01:35:42;;;;;;;12.50;7.10;;;16.90;67.10;;;;;;5227024;26;110794;-51
2024/04/12 01:38:18;;;;;;;9.18;7.05;;;16.80;67.20;;;;;;5227253;26;112150;-50
2024/04/12 01:40:56;;;;;;;11.57;7.05;;;16.90;67.00;;;;;;5225493;26;111663;-50
2024/04/12 01:43:22;;;;;;;9.80;6.57;;;16.90;66.90;;;;;;5225691;26;112174;-51
2024/04/12 01:45:54;;;;;;;8.85;6.57;;;16.90;67.30;;;;;;5226999;26;110520;-51
2024/04/12 01:48:22;;;;;;;10.70;7.43;;;16.90;67.00;;;;;;5225877;26;110814;-51
2024/04/12 01:50:51;;;;;;;13.20;7.32;;;16.80;67.60;;;;;;5225209;26;111049;-50
2024/04/12 01:53:21;;;;;;;12.00;6.57;;;16.60;67.90;;;;;;5225760;26;110831;-51
2024/04/12 01:55:50;;;;;;;9.40;6.93;;;16.70;67.60;;;;;;5196534;26;110598;-51
2024/04/12 01:58:20;;;;;;;11.15;6.50;;;16.70;67.10;;;;;;5226608;26;110972;-51
2024/04/12 02:00:46;;;;;;;10.93;6.80;;;16.80;67.00;;;;;;5227109;26;112233;-50
2024/04/12 02:03:13;;;;;;;9.77;6.47;;;16.80;67.00;;;;;;5228820;26;111547;-51
2024/04/12 02:05:39;;;;;;;11.35;6.43;;;16.70;66.80;;;;;;5229362;26;111123;-50
2024/04/12 02:08:16;;;;;;;12.52;6.72;;;16.80;66.80;;;;;;5226953;26;110644;-51
2024/04/12 02:10:44;;;;;;;10.55;6.50;;;16.70;66.70;;;;;;5197579;26;114431;-51
2024/04/12 02:13:17;;;;;;;8.93;5.53;;;16.70;66.90;;;;;;5208440;26;111695;-50
2024/04/12 02:15:43;;;;;;;;;;;16.70;66.60;;;;;;5217563;26;110583;-51
2024/04/12 02:18:13;;;;;;;8.85;6.10;;;16.60;66.80;;;;;;5230485;26;110550;-51
2024/04/12 02:20:39;;;;;;;9.30;5.47;;;16.70;66.50;;;;;;5230839;26;111108;-50
2024/04/12 02:23:06;;;;;;;8.93;5.47;;;16.70;66.30;;;;;;5233570;26;110615;-51
2024/04/12 02:25:36;;;;;;;9.60;5.68;;;16.60;66.20;;;;;;5243614;26;110944;-50
2024/04/12 02:28:08;;;;;;;8.18;5.22;;;16.70;66.20;;;;;;5207620;26;110581;-51
2024/04/12 02:30:46;;;;;;;;;;;16.80;65.70;;;;;;5250732;26;111501;-51
2024/04/12 02:33:16;;;;;;;8.77;5.25;;;16.70;66.20;;;;;;5249265;26;110778;-51
2024/04/12 02:35:43;;;;;;;9.82;5.40;;;16.60;66.20;;;;;;5239210;26;110791;-50
2024/04/12 02:38:20;;;;;;;7.45;5.60;;;16.70;65.70;;;;;;5240745;26;110724;-51
2024/04/12 02:40:48;;;;;;;10.38;5.70;;;16.60;66.00;;;;;;5247920;26;111353;-51
2024/04/12 02:43:15;;;;;;;11.27;5.50;;;16.60;66.20;;;;;;5239513;26;110539;-51
2024/04/12 02:45:55;;;;;;;9.93;5.22;;;16.60;66.40;;;;;;5249505;26;111136;-51
2024/04/12 02:48:21;;;;;;;9.52;5.70;;;16.40;66.80;;;;;;5208925;26;110482;-53
2024/04/12 02:50:54;;;;;;;9.90;5.40;;;16.40;67.10;;;;;;5231323;26;111183;-50
2024/04/12 02:53:27;;;;;;;7.90;4.95;;;16.40;67.10;;;;;;5250155;26;111822;-51
2024/04/12 02:56:11;;;;;;;8.90;5.30;;;16.40;66.80;;;;;;5234647;26;110840;-50
2024/04/12 02:58:45;;;;;;;7.05;5.10;;;16.40;67.00;;;;;;5233840;26;110570;-50
2024/04/12 03:01:16;;;;;;;8.55;5.35;;;16.30;67.20;;;;;;5245751;26;112485;-51
2024/04/12 03:03:55;;;;;;;13.32;5.28;;;16.40;66.70;;;;;;5222070;26;111788;-51
2024/04/12 03:06:23;;;;;;;13.02;5.40;;;16.40;66.70;;;;;;5262232;26;110893;-51
2024/04/12 03:08:51;;;;;;;8.55;4.93;;;16.30;66.80;;;;;;5240116;26;110731;-51
2024/04/12 03:11:26;;;;;;;8.07;4.93;;;16.40;67.00;;;;;;5231328;26;111731;-51
2024/04/12 03:13:54;;;;;;;8.95;5.00;;;16.30;67.40;;;;;;5228036;26;110440;-51
2024/04/12 03:16:20;;;;;;;19.80;11.13;;;16.30;67.80;;;;;;5244579;26;110414;-51
2024/04/12 03:18:51;;;;;;;15.63;10.40;;;16.30;67.60;;;;;;5243512;26;110645;-51
2024/04/12 03:21:26;;;;;;;15.70;11.88;;;16.20;68.10;;;;;;5249013;26;112476;-50
2024/04/12 03:23:57;;;;;;;10.63;9.43;;;16.20;68.20;;;;;;5231781;26;111998;-50
2024/04/12 03:26:23;;;;;;;10.43;7.32;;;16.10;68.00;;;;;;5234757;26;110585;-51
2024/04/12 03:28:56;;;;;;;10.75;7.68;;;16.00;68.30;;;;;;5202536;26;110709;-51
2024/04/12 03:31:25;;;;;;;7.47;6.60;;;15.90;68.90;;;;;;5247776;26;111094;-51
2024/04/12 03:33:54;;;;;;;10.43;6.45;;;15.80;69.50;;;;;;5231998;26;110919;-50
2024/04/12 03:36:40;;;;;;;10.57;6.30;;;15.80;69.60;;;;;;5227044;26;110612;-51
2024/04/12 03:41:46;;;;;;;9.13;5.55;;;15.60;70.70;;;;;;5226382;26;111347;-51
2024/04/12 03:44:18;;;;;;;9.27;5.93;;;15.70;70.40;;;;;;5225832;26;110551;-51
2024/04/12 03:46:47;;;;;;;8.27;5.40;;;15.70;70.30;;;;;;5226936;26;110962;-51
2024/04/12 03:49:16;;;;;;;7.95;5.60;;;15.70;70.30;;;;;;5226799;26;110589;-50
2024/04/12 03:51:46;;;;;;;11.13;5.70;;;15.70;70.40;;;;;;5226030;26;111488;-51
2024/04/12 03:54:20;;;;;;;9.68;5.60;;;15.70;70.40;;;;;;5226114;26;110771;-51
2024/04/12 03:56:50;;;;;;;9.32;5.35;;;15.50;70.90;;;;;;5226138;26;112263;-50
2024/04/12 03:59:16;;;;;;;10.10;6.07;;;15.60;70.80;;;;;;5227057;26;110749;-51
2024/04/12 04:01:44;;;;;;;7.38;5.38;;;15.50;71.20;;;;;;5229028;26;111706;-50
2024/04/12 04:04:17;;;;;;;10.52;5.32;;;15.50;71.30;;;;;;5230483;26;111858;-52
2024/04/12 04:06:44;;;;;;;8.50;5.32;;;15.30;71.90;;;;;;5221993;26;110903;-52
2024/04/12 04:09:12;;;;;;;11.93;5.47;;;15.40;71.40;;;;;;5204676;26;110749;-51
2024/04/12 04:11:42;;;;;;;9.93;5.68;;;15.30;70.90;;;;;;5236005;26;113150;-52
2024/04/12 04:14:13;;;;;;;10.45;5.88;;;15.30;71.10;;;;;;5236425;26;111766;-52
2024/04/12 04:16:42;;;;;;;12.02;6.22;;;15.30;70.80;;;;;;5241534;26;110737;-51
2024/04/12 04:19:16;;;;;;;12.07;6.85;;;15.40;71.20;;;;;;5251238;26;110982;-55
2024/04/12 04:21:43;;;;;;;10.75;6.68;;;15.20;71.40;;;;;;5253201;26;112388;-51
2024/04/12 04:24:09;;;;;;;12.75;6.20;;;15.20;71.60;;;;;;5251516;26;111063;-52
2024/04/12 04:26:40;;;;;;;9.07;5.88;;;15.10;72.00;;;;;;5238789;26;110609;-51
2024/04/12 04:29:09;;;;;;;12.68;6.20;;;15.00;72.40;;;;;;5234164;26;110824;-52
2024/04/12 04:31:56;;;;;;;10.77;6.50;;;15.00;72.70;;;;;;5235471;26;113030;-52
2024/04/12 04:34:22;;;;;;;11.00;5.90;;;15.00;73.10;;;;;;5226689;26;111781;-52
2024/04/12 04:36:49;;;;;;;14.02;6.22;;;15.00;72.70;;;;;;5246308;26;110584;-51
2024/04/12 04:39:16;;;;;;;16.73;7.43;;;14.90;73.00;;;;;;5232894;26;110979;-52
2024/04/12 04:41:52;;;;;;;13.35;6.57;;;14.90;73.50;;;;;;5244777;26;111657;-51
2024/04/12 04:44:18;;;;;;;15.95;6.57;;;14.90;74.00;;;;;;5241380;26;110681;-52
2024/04/12 04:46:49;;;;;;;15.77;6.60;;;14.80;74.30;;;;;;5225579;26;111512;-52
2024/04/12 04:49:16;;;;;;;13.25;6.05;;;14.80;74.50;;;;;;5233018;26;110518;-52
2024/04/12 04:51:45;;;;;;;13.30;6.50;;;14.90;73.80;;;;;;5224834;26;112258;-53
2024/04/12 04:54:11;;;;;;;10.30;6.30;;;14.80;74.10;;;;;;5226972;26;112157;-51
2024/04/12 04:56:41;;;;;;;16.23;6.85;;;14.90;73.50;;;;;;5230082;26;110823;-51
2024/04/12 04:59:16;;;;;;;12.23;6.68;;;15.00;73.00;;;;;;5225819;26;110552;-50
2024/04/12 05:01:52;;;;;;;8.25;6.22;;;15.00;73.10;;;;;;5220354;26;111326;-50
2024/04/12 05:04:20;;;;;;;12.80;7.22;;;14.90;73.70;;;;;;5244723;26;113674;-50
2024/04/12 05:06:47;;;;;;;6.47;5.78;;;15.10;73.00;;;;;;5229298;26;110719;-51
2024/04/12 05:09:18;;;;;;;13.60;6.40;;;15.20;71.90;;;;;;5217526;26;110981;-50
2024/04/12 05:11:50;;;;;;;13.68;6.43;;;15.30;72.00;;;;;;5224491;26;111150;-50
2024/04/12 05:15:10;;;;;;;13.27;6.47;;;15.40;71.70;;;;;;5224722;26;110603;-50
2024/04/12 05:17:06;;;;;;;8.80;6.10;;;15.40;71.50;;;;;;5203850;26;110731;-50
2024/04/12 05:19:43;;;;;;;10.38;6.25;;;15.40;71.00;;;;;;5228027;26;111250;-50
2024/04/12 05:22:19;;;;;;;7.28;6.10;;;15.60;71.00;;;;;;5215287;26;111134;-48
2024/04/12 05:28:35;;;;;;;13.52;7.57;;;15.80;70.20;;;;;;5376884;26;110579;-51
2024/04/12 05:31:02;;;;;;;13.35;6.35;;;15.80;69.80;;;;;;5377456;26;110478;-49
2024/04/12 05:33:29;;;;;;;16.45;6.22;;;15.90;69.60;;;;;;5356903;26;110909;-50
2024/04/12 05:35:55;;;;;;;9.32;5.90;;;16.10;69.20;;;;;;5375273;26;112446;-51
2024/04/12 05:38:21;;;;;;;11.35;5.90;;;16.30;68.40;;;;;;5382012;26;111399;-50
2024/04/12 05:40:56;;;;;;;11.65;5.65;;;16.40;68.20;;;;;;5381926;26;110450;-50
2024/04/12 05:43:22;;;;;;;15.38;5.53;;;16.50;67.80;;;;;;5383841;26;110555;-53
2024/04/12 05:45:50;;;;;;;8.73;5.95;;;16.70;66.90;;;;;;5383011;26;112453;-50
2024/04/12 05:48:21;;;;;;;12.70;5.82;;;16.70;67.40;;;;;;5383540;26;111021;-50
2024/04/12 05:50:48;;;;;;;11.75;5.55;;;16.80;67.20;;;;;;5384358;26;110826;-51
2024/04/12 05:53:14;;;;;;;9.65;5.45;;;16.90;67.10;;;;;;5384878;26;111111;-50
2024/04/12 05:55:46;;;;;;;14.60;5.97;;;17.00;66.40;;;;;;5383669;26;111301;-50
2024/04/12 05:58:15;;;;;;;13.63;6.07;;;17.10;67.10;;;;;;5334611;26;111527;-51
2024/04/12 06:00:47;;;;;;;11.07;6.10;;;17.20;66.80;;;;;;5384833;26;110747;-52
2024/04/12 06:03:14;;;;;;;10.48;5.82;;;17.20;67.00;;;;;;5384767;26;110765;-51
2024/04/12 06:05:55;;;;;;;12.40;6.47;;;17.30;66.40;;;;;;5383581;26;111154;-50
2024/04/12 06:08:24;;;;;;;16.98;6.75;;;17.30;67.00;;;;;;5383241;26;110839;-51
2024/04/12 06:10:50;;;;;;;17.25;6.43;;;17.40;66.40;;;;;;5384727;26;110587;-50
2024/04/12 06:13:21;;;;;;;9.65;5.93;;;17.50;66.30;;;;;;5384660;26;111134;-52
2024/04/12 06:15:48;;;;;;;10.02;6.28;;;17.60;65.80;;;;;;5383449;26;112368;-52
2024/04/12 06:18:16;;;;;;;16.38;5.72;;;17.80;65.20;;;;;;5383119;26;111373;-52
2024/04/12 06:20:43;;;;;;;11.30;6.75;;;17.90;64.80;;;;;;5384577;26;110646;-50
2024/04/12 06:23:11;;;;;;;9.70;5.97;;;17.90;65.10;;;;;;5384414;26;110576;-50
2024/04/12 06:25:43;;;;;;;13.65;5.72;;;18.00;65.00;;;;;;5383841;26;112347;-55
2024/04/12 06:28:13;;;;;;;11.18;5.43;;;18.10;64.50;;;;;;5393819;26;110619;-50
2024/04/12 06:30:49;;;;;;;12.00;5.63;;;18.20;63.60;;;;;;5415630;26;110459;-50
2024/04/12 06:33:25;;;;;;;13.40;5.70;;;18.40;63.40;;;;;;5420563;25;110559;-50
2024/04/12 06:35:55;;;;;;;9.45;4.47;;;18.50;62.40;;;;;;5419258;26;111129;-50
2024/04/12 06:38:22;;;;;;;9.63;5.10;;;18.70;61.80;;;;;;5413047;26;110520;-50
2024/04/12 06:40:55;;;;;;;7.78;4.28;;;18.80;61.20;;;;;;5374213;26;110432;-50
2024/04/12 06:43:22;;;;;;;7.57;4.85;;;18.80;60.90;;;;;;5368700;26;110377;-50
2024/04/12 06:45:57;;;;;;;8.80;4.93;;;18.90;60.70;;;;;;5387758;26;111210;-49
2024/04/12 06:48:26;;;;;;;9.88;4.53;;;19.10;60.40;;;;;;5389964;26;111829;-50
2024/04/12 06:50:56;;;;;;;11.30;4.85;;;19.20;59.70;;;;;;5393439;26;112412;-50
2024/04/12 06:53:23;;;;;;;10.82;4.38;;;19.40;59.50;;;;;;5397804;25;110626;-50
2024/04/12 06:56:06;;;;;;;11.73;4.30;;;19.40;58.90;;;;;;5398738;26;111067;-53
2024/04/12 06:58:33;;;;;;;8.15;4.15;;;19.70;58.70;;;;;;5363674;26;110914;-50
2024/04/12 07:00:59;;;;;;;8.18;4.85;;;19.80;57.90;;;;;;5377159;26;110538;-50
2024/04/12 07:03:25;;;;;;;7.32;4.20;;;19.90;57.90;;;;;;5368651;26;110895;-51
2024/04/12 07:05:53;;;;;;;9.80;7.22;;;20.00;57.50;;;;;;5367582;26;111106;-50
2024/04/12 07:08:22;;;;;;;9.20;3.95;;;20.10;57.20;;;;;;5381030;26;111961;-51
2024/04/12 07:10:50;;;;;;;6.78;3.78;;;20.30;55.70;;;;;;5367336;26;112005;-50
2024/04/12 07:13:21;;;;;;;8.30;4.00;;;20.30;56.00;;;;;;5371428;26;110469;-53
2024/04/12 07:15:50;;;;;;;9.80;3.80;;;20.50;54.80;;;;;;5373318;26;112514;-50
2024/04/12 07:18:17;;;;;;;7.70;3.38;;;20.50;54.50;;;;;;5369851;26;111710;-51
2024/04/12 07:20:44;;;;;;;7.47;3.40;;;20.70;54.10;;;;;;5372727;26;110877;-50
2024/04/12 07:23:16;;;;;;;8.43;3.90;;;20.80;54.30;;;;;;5376132;26;111110;-50
2024/04/12 07:25:45;;;;;;;10.18;3.65;;;20.90;54.10;;;;;;5369291;26;111058;-55
2024/04/12 07:28:20;;;;;;;7.82;3.40;;;21.00;53.40;;;;;;5368080;26;111360;-52
2024/04/12 07:30:45;;;;;;;9.25;3.47;;;21.20;53.50;;;;;;5383655;26;110565;-50
2024/04/12 07:33:12;;;;;;;7.20;3.58;;;21.30;53.10;;;;;;5385601;26;110585;-51
2024/04/12 07:35:48;;;;;;;6.70;3.95;;;21.40;52.20;;;;;;5377863;26;112717;-54
2024/04/12 07:38:14;;;;;;;20.55;4.05;;;21.60;51.10;;;;;;5402491;26;111663;-50
2024/04/12 07:40:43;;;;;;;6.55;3.65;;;21.60;52.30;;;;;;5384474;26;110480;-51
2024/04/12 07:43:09;;;;;;;8.00;3.38;;;21.60;51.20;;;;;;5404007;26;110575;-50
2024/04/12 07:45:38;;;;;;;4.38;3.50;;;21.80;51.60;;;;;;5379746;26;112707;-50
2024/04/12 07:50:47;;;;;;;9.17;3.53;;;22.00;51.60;;;;;;5375451;26;110596;-54
2024/04/12 07:53:25;;;;;;;9.13;3.05;;;22.10;51.10;;;;;;5383481;26;110619;-51
2024/04/12 07:55:58;;;;;;;4.40;3.45;;;22.30;50.90;;;;;;5389943;26;111471;-50
2024/04/12 07:58:27;;;;;;;6.75;3.33;;;22.40;51.00;;;;;;5380175;26;112019;-50
2024/04/12 08:01:09;;;;;;;5.55;3.30;;;22.40;50.80;;;;;;5381948;26;110808;-53
2024/04/12 08:03:39;;;;;;;6.32;3.10;;;22.50;50.40;;;;;;5385775;26;110749;-50
2024/04/12 08:06:05;;;;;;;6.45;3.63;;;22.60;50.10;;;;;;5389012;26;111622;-51
2024/04/12 08:08:44;;;;;;;4.70;3.33;;;22.70;49.70;;;;;;5368029;26;110664;-50
2024/04/12 08:11:33;;;;;;;7.40;3.35;;;22.80;49.50;;;;;;5401791;26;111126;-51
2024/04/12 08:14:08;;;;;;;5.30;3.17;;;23.00;49.00;;;;;;5374618;26;110801;-52
2024/04/12 08:16:38;;;;;;;8.90;3.40;;;23.00;48.90;;;;;;5384045;26;112628;-52
2024/04/12 08:19:11;;;;;;;7.97;3.42;;;23.30;47.90;;;;;;5366219;26;110438;-49
2024/04/12 08:21:41;;;;;;;6.18;3.25;;;23.30;47.60;;;;;;5367695;26;110990;-49
2024/04/12 08:24:10;;;;;;;8.68;3.80;;;23.40;47.70;;;;;;5367419;26;110589;-52
2024/04/12 08:26:38;;;;;;;8.40;3.58;;;23.50;47.50;;;;;;5380083;26;111543;-50
2024/04/12 08:29:11;;;;;;;5.80;3.00;;;23.70;47.10;;;;;;5366373;26;110596;-51
2024/04/12 08:31:38;;;;;;;6.07;2.80;;;23.90;46.80;;;;;;5367818;26;110365;-50
2024/04/12 08:34:04;;;;;;;9.05;3.47;;;23.90;46.60;;;;;;5373544;26;110875;-51
2024/04/12 08:36:33;;;;;;;5.63;2.90;;;23.90;46.50;;;;;;5372996;26;113194;-50
2024/04/12 08:39:12;;;;;;;11.80;3.53;;;24.10;46.50;;;;;;5391075;26;111334;-51
2024/04/12 08:41:38;;;;;;;4.38;3.30;;;24.40;46.00;;;;;;5385282;26;110959;-50
2024/04/12 08:44:11;;;;;;;70.10;6.22;;;24.50;45.70;;;;;;5399727;26;110506;-52
2024/04/12 08:46:37;;;;;;;10.73;3.28;;;24.40;46.30;;;;;;5370705;26;111212;-50
2024/04/12 08:49:03;;;;;;;8.05;3.28;;;24.60;44.90;;;;;;5385663;26;112081;-50
2024/04/12 08:51:34;;;;;;;7.15;3.50;;;24.90;44.60;;;;;;5386845;26;110692;-51
2024/04/12 08:54:05;;;;;;;8.88;3.78;;;25.00;44.60;;;;;;5380095;26;110516;-50
2024/04/12 08:56:31;;;;;;;5.68;3.53;;;24.90;44.30;;;;;;5360126;26;112537;-51
2024/04/12 08:59:05;;;;;;;6.68;3.15;;;24.90;43.40;;;;;;5367852;26;110490;-50
2024/04/12 09:01:32;;;;;;;7.07;3.50;;;24.50;43.10;;;;;;5365783;26;110510;-50
2024/04/12 09:04:04;;;;;;;7.50;3.22;;;24.40;43.70;;;;;;5369222;26;110556;-51
2024/04/12 09:06:35;;;;;;;8.50;3.88;;;24.70;43.90;;;;;;5367573;26;112410;-50
2024/04/12 09:09:01;;;;;;;4.13;3.22;;;25.10;43.30;;;;;;5366162;26;112507;-50
2024/04/12 09:11:31;;;;;;;6.72;3.72;;;25.40;43.70;;;;;;5370906;26;110886;-53
2024/04/12 09:14:08;;;;;;;6.82;3.80;;;25.40;41.30;;;;;;5367023;26;110848;-54
2024/04/12 09:17:00;;;;;;;7.88;4.13;;;25.20;41.60;;;;;;5367519;26;112456;-53
2024/04/12 09:19:28;;;;;;;7.82;3.60;;;25.40;41.60;;;;;;5367757;26;111493;-52
2024/04/12 09:22:02;;;;;;;10.82;3.47;;;25.20;42.50;;;;;;5369813;26;110900;-50
2024/04/12 09:24:31;;;;;;;8.80;3.50;;;25.60;42.70;;;;;;5367267;26;110583;-50
2024/04/12 09:27:06;;;;;;;5.22;3.47;;;26.10;41.30;;;;;;5368123;26;113268;-50
2024/04/12 09:29:37;;;;;;;7.28;3.60;;;26.00;40.70;;;;;;5371259;26;111580;-50
2024/04/12 09:34:55;;;;;;;7.65;3.67;;;26.20;41.30;;;;;;5373842;26;110429;-50
2024/04/12 09:37:29;;;;;;;8.43;3.88;;;26.40;40.70;;;;;;5372131;25;112368;-50
2024/04/12 09:42:38;;;;;;;6.18;4.03;;;26.80;40.00;;;;;;5365885;26;110680;-51
2024/04/12 09:45:08;;;;;;;7.00;4.10;;;26.80;40.20;;;;;;5374996;26;110685;-51
2024/04/12 10:37:48;;;;;;;5.68;4.22;;;31.10;33.70;;;;;;5348462;26;110576;-52
2024/04/12 10:40:15;;;;;;;6.97;4.60;;;30.60;34.70;;;;;;5382081;26;110600;-51
2024/04/12 10:42:46;;;;;;;8.25;4.82;;;30.40;34.60;;;;;;5374972;26;113109;-52
2024/04/12 10:45:17;;;;;;;6.75;4.40;;;30.20;34.60;;;;;;5402687;26;111442;-51
2024/04/12 10:47:47;;;;;;;7.50;4.57;;;29.80;36.00;;;;;;5401683;26;110551;-51
2024/04/12 10:50:14;;;;;;;5.18;4.32;;;30.00;36.10;;;;;;5385428;26;110546;-51
2024/04/12 10:52:42;;;;;;;8.13;4.80;;;30.20;35.50;;;;;;5371451;26;112665;-51
2024/04/12 10:55:09;;;;;;;5.18;4.40;;;30.30;35.00;;;;;;5402888;26;112185;-51
2024/04/12 10:57:47;;;;;;;6.90;4.80;;;30.50;35.00;;;;;;5396384;25;111035;-51
2024/04/12 11:00:14;;;;;;;8.05;4.47;;;30.40;34.40;;;;;;5348211;26;110509;-51
2024/04/12 11:02:54;;;;;;;10.10;4.75;;;29.80;34.70;;;;;;5366409;26;112467;-51
2024/04/12 11:07:51;;;;;;;5.88;5.18;;;29.80;36.00;;;;;;5388348;26;110810;-51
2024/04/12 11:10:24;;;;;;;6.97;4.80;;;29.70;35.80;;;;;;5367635;26;110923;-51
2024/04/12 11:13:01;;;;;;;7.10;4.40;;;30.30;35.30;;;;;;5372886;26;111156;-51
2024/04/12 11:31:52;;;;;;;8.73;4.50;;;31.40;33.60;;;;;;5387130;26;110681;-52
2024/04/12 11:34:25;;;;;;;6.30;4.22;;;31.40;34.30;;;;;;5375828;26;111045;-51
2024/04/12 11:36:53;;;;;;;5.63;4.30;;;31.10;34.00;;;;;;5386001;26;110464;-52
2024/04/12 11:39:27;;;;;;;5.28;4.35;;;31.30;33.80;;;;;;5392313;26;110613;-51
2024/04/12 11:41:55;;;;;;;7.85;4.25;;;30.60;34.00;;;;;;5372733;26;110743;-51
2024/04/12 11:44:24;;;;;;;8.60;4.30;;;30.70;34.80;;;;;;5398968;26;112516;-51
2024/04/12 11:46:54;;;;;;;6.85;4.30;;;31.40;33.80;;;;;;5366645;26;110890;-51
2024/04/12 11:49:26;;;;;;;9.00;3.88;;;30.90;32.70;;;;;;5367629;26;110891;-51
2024/04/12 11:51:55;;;;;;;7.03;4.63;;;31.10;33.70;;;;;;5373429;26;110987;-52
2024/04/12 11:54:30;;;;;;;5.43;3.83;;;31.90;33.60;;;;;;5372388;26;111591;-52
2024/04/12 11:57:00;;;;;;;6.85;4.45;;;31.80;33.60;;;;;;5384942;26;110734;-53
2024/04/12 11:59:30;;;;;;;7.40;4.22;;;31.90;33.90;;;;;;5373302;26;110571;-51
2024/04/12 12:02:00;;;;;;;4.50;3.75;;;32.00;33.30;;;;;;5366690;26;112197;-51
2024/04/12 12:04:30;;;;;;;7.55;4.35;;;32.00;35.90;;;;;;5379560;25;111631;-51
2024/04/12 12:06:59;;;;;;;9.35;4.45;;;31.90;34.10;;;;;;5380286;26;111883;-51
2024/04/12 12:09:31;;;;;;;7.13;4.20;;;31.10;32.80;;;;;;5376866;26;110844;-53
2024/04/12 12:12:00;;;;;;;3.80;3.47;;;31.10;35.20;;;;;;5379638;26;110443;-52
2024/04/12 12:14:27;;;;;;;5.35;4.15;;;31.70;34.60;;;;;;5379232;26;111093;-53
2024/04/12 12:16:59;;;;;;;6.55;4.38;;;31.30;34.10;;;;;;5354273;26;110458;-52
2024/04/12 12:19:25;;;;;;;9.82;4.63;;;31.20;33.80;;;;;;5354563;26;110488;-51
2024/04/12 12:21:51;;;;;;;6.50;3.90;;;30.90;33.50;;;;;;5377446;26;110505;-52
2024/04/12 12:24:17;;;;;;;6.70;3.75;;;29.90;33.70;;;;;;5365832;26;111129;-51
2024/04/12 12:26:44;;;;;;;5.97;4.00;;;30.70;35.20;;;;;;5375446;26;110574;-51
2024/04/12 12:29:13;;;;;;;6.15;4.05;;;31.00;34.00;;;;;;5367013;26;110681;-51
2024/04/12 12:31:38;;;;;;;6.38;4.03;;;30.20;35.30;;;;;;5380279;26;110810;-51
2024/04/12 12:34:05;;;;;;;7.68;4.43;;;30.60;35.40;;;;;;5397344;26;111039;-52
2024/04/12 12:36:33;;;;;;;10.00;4.60;;;30.30;34.40;;;;;;5383828;25;110504;-51
2024/04/12 12:38:59;;;;;;;8.35;4.28;;;29.90;35.20;;;;;;5394806;25;111171;-52
2024/04/12 12:41:25;;;;;;;5.70;4.13;;;30.50;36.00;;;;;;5399709;26;110929;-51
2024/04/12 12:43:52;;;;;;;6.72;4.15;;;31.00;34.90;;;;;;5371798;26;111545;-51
2024/04/12 12:46:24;;;;;;;9.48;4.45;;;31.20;34.40;;;;;;5381108;26;111538;-52
2024/04/12 12:48:52;;;;;;;6.38;4.30;;;31.40;34.30;;;;;;5366438;26;111410;-52
2024/04/12 12:51:18;;;;;;;5.43;4.30;;;31.00;34.00;;;;;;5385654;25;112305;-51
2024/04/12 12:53:46;;;;;;;5.45;4.07;;;31.00;34.40;;;;;;5377227;25;112956;-51
2024/04/12 12:56:13;;;;;;;15.20;4.40;;;30.90;35.20;;;;;;5373035;26;110972;-52
2024/04/12 12:58:38;;;;;;;6.05;4.20;;;31.40;34.50;;;;;;5366012;26;110930;-51
2024/04/12 13:01:07;;;;;;;5.85;4.10;;;31.00;34.50;;;;;;5387240;26;110669;-51
2024/04/12 13:03:36;;;;;;;6.28;4.03;;;31.10;34.50;;;;;;5375584;26;111787;-51
2024/04/12 13:06:08;;;;;;;5.85;4.28;;;31.30;34.10;;;;;;5378146;26;111722;-52
2024/04/12 13:08:39;;;;;;;;;;;31.00;34.10;;;;;;5380415;26;111517;-52
2024/04/12 13:11:08;;;;;;;8.27;4.03;;;30.80;34.20;;;;;;5398164;25;110887;-52
2024/04/12 13:13:41;;;;;;;6.70;3.83;;;30.90;34.30;;;;;;5381174;26;112037;-53
2024/04/12 13:16:13;;;;;;;6.28;4.18;;;30.60;34.00;;;;;;5381875;25;112244;-51
2024/04/12 13:18:51;;;;;;;6.15;4.55;;;30.90;35.20;;;;;;5380372;26;111218;-53
2024/04/12 13:21:18;;;;;;;7.00;3.83;;;31.00;34.40;;;;;;5368174;26;110533;-54
2024/04/12 13:23:46;;;;;;;9.48;4.13;;;31.10;35.00;;;;;;5393190;25;111403;-51
2024/04/12 13:26:31;;;;;;;6.47;3.95;;;30.80;35.20;;;;;;5378116;26;110686;-53
2024/04/12 13:28:57;;;;;;;4.70;3.97;;;30.20;36.10;;;;;;5373377;26;111071;-52
2024/04/12 13:31:29;;;;;;;7.22;3.85;;;31.00;34.70;;;;;;5398899;26;110842;-51
2024/04/12 13:33:55;;;;;;;;;;;31.10;34.70;;;;;;5391988;25;111022;-52
2024/04/12 13:36:24;;;;;;;5.60;4.15;;;31.40;34.30;;;;;;5399055;26;110838;-51
2024/04/12 13:38:51;;;;;;;8.35;4.30;;;31.20;33.40;;;;;;5365355;26;110541;-51
2024/04/12 13:41:19;;;;;;;7.57;4.28;;;30.80;34.10;;;;;;5399446;26;110607;-51
2024/04/12 13:43:46;;;;;;;7.55;4.65;;;31.10;33.30;;;;;;5392115;26;112570;-52
2024/04/12 13:51:50;;;;;;;6.43;4.05;;;30.80;35.30;;;;;;5403913;26;110512;-51
2024/04/12 13:54:20;;;;;;;10.25;4.40;;;31.10;34.40;;;;;;5371540;26;113099;-53
2024/04/12 13:56:53;;;;;;;5.35;4.03;;;31.00;34.30;;;;;;5367393;26;111513;-51
2024/04/12 13:59:18;;;;;;;11.65;4.00;;;30.90;34.10;;;;;;5372476;26;110798;-51
2024/04/12 14:01:45;;;;;;;6.75;4.03;;;30.50;35.70;;;;;;5368767;26;110527;-51
2024/04/12 14:04:17;;;;;;;5.43;3.83;;;30.80;36.20;;;;;;5363625;26;111172;-51
2024/04/12 14:06:46;;;;;;;7.00;3.95;;;31.00;35.10;;;;;;5382285;26;112116;-52
2024/04/12 14:09:14;;;;;;;6.45;4.10;;;31.10;35.90;;;;;;5385979;26;110455;-51
2024/04/12 14:11:40;;;;;;;8.73;4.28;;;30.40;36.10;;;;;;5371524;26;110804;-51
2024/04/12 14:14:07;;;;;;;7.13;4.18;;;30.40;36.60;;;;;;5369050;26;112410;-51
2024/04/12 14:16:41;;;;;;;5.00;3.92;;;30.50;35.90;;;;;;5366821;26;111501;-51